Time;durP1;ratioP1;P1;durP2;ratioP2;P2;SDS_P1;SDS_P2;PMS_P1;PMS_P2;Temp;Humidity;BMP_temperature;BMP_pressure;BME280_temperature;BME280_humidity;BME280_pressure;Samples;Min_cycle;Max_cycle;Signal;HPM_P1;HPM_P2
2021/05/24 00:00:40;;;;;;;2.22;1.33;;;436.10;2355.20;;;;;;5043127;28;20025;-72
2021/05/24 00:03:06;;;;;;;3.45;1.30;;;436.10;2355.20;;;;;;5035518;28;20373;-69
2021/05/24 00:05:34;;;;;;;3.28;1.40;;;436.10;2355.20;;;;;;5035245;28;20031;-70
2021/05/24 00:08:01;;;;;;;2.72;1.60;;;436.10;2355.20;;;;;;5033675;28;20065;-69
2021/05/24 00:10:29;;;;;;;3.03;1.67;;;436.00;2355.20;;;;;;5034420;28;20511;-68
2021/05/24 00:12:58;;;;;;;1.98;1.20;;;436.00;2355.20;;;;;;5050994;28;20506;-68
2021/05/24 00:15:27;;;;;;;1.77;1.15;;;435.90;2355.20;;;;;;5052973;28;20103;-69
2021/05/24 00:17:53;;;;;;;2.15;1.30;;;435.80;2355.20;;;;;;5052835;28;20075;-71
2021/05/24 00:20:22;;;;;;;1.98;1.25;;;435.70;2355.20;;;;;;5052964;28;20033;-70
2021/05/24 00:22:48;;;;;;;2.53;1.20;;;435.60;2355.20;;;;;;5052694;28;20471;-70
2021/05/24 00:25:15;;;;;;;2.25;1.20;;;435.50;2355.20;;;;;;5052679;28;20035;-71
2021/05/24 00:27:41;;;;;;;2.05;1.20;;;435.40;2355.20;;;;;;5052517;28;20086;-70
2021/05/24 00:30:08;;;;;;;2.50;1.25;;;435.40;2355.20;;;;;;5052865;28;20032;-70
2021/05/24 00:32:34;;;;;;;2.40;1.30;;;435.30;2355.20;;;;;;5052449;28;20013;-70
2021/05/24 00:35:00;;;;;;;2.95;1.30;;;435.30;2355.20;;;;;;5052438;28;20029;-69
2021/05/24 00:37:25;;;;;;;2.00;1.30;;;435.30;2355.20;;;;;;5052545;28;20021;-70
2021/05/24 00:39:51;;;;;;;3.95;1.30;;;435.30;2355.20;;;;;;5052356;28;20044;-70
2021/05/24 00:42:17;;;;;;;1.92;1.10;;;435.40;2355.20;;;;;;5052660;28;20028;-69
2021/05/24 00:44:43;;;;;;;2.28;1.42;;;435.40;2355.20;;;;;;5052168;28;20021;-70
2021/05/24 00:47:09;;;;;;;2.72;1.45;;;435.40;2355.20;;;;;;5052607;28;20017;-70
2021/05/24 00:49:35;;;;;;;2.20;1.27;;;435.50;2355.20;;;;;;5052238;28;20040;-70
2021/05/24 00:52:01;;;;;;;2.03;1.30;;;435.50;2355.20;;;;;;5034521;28;20614;-69
2021/05/24 00:54:28;;;;;;;2.45;1.30;;;435.50;2355.20;;;;;;5052290;28;20131;-70
2021/05/24 00:56:57;;;;;;;2.58;1.50;;;435.50;2355.20;;;;;;5052543;28;20025;-70
2021/05/24 00:59:22;;;;;;;3.00;1.80;;;435.50;2355.20;;;;;;5052247;28;20032;-69
2021/05/24 01:01:49;;;;;;;2.90;1.90;;;435.40;2355.20;;;;;;5052060;28;20384;-70
2021/05/24 01:04:17;;;;;;;3.40;1.77;;;435.30;2355.20;;;;;;5052128;28;20032;-69
2021/05/24 01:06:43;;;;;;;3.80;1.90;;;435.30;2355.20;;;;;;5052157;28;20035;-69
2021/05/24 01:09:09;;;;;;;2.60;1.67;;;435.30;2355.20;;;;;;5052190;28;20490;-69
2021/05/24 01:11:35;;;;;;;4.57;2.00;;;435.30;2355.20;;;;;;5051871;28;20025;-69
2021/05/24 01:14:01;;;;;;;3.60;1.90;;;435.20;2355.20;;;;;;5052327;28;20024;-71
2021/05/24 01:16:28;;;;;;;4.22;1.92;;;435.20;2355.20;;;;;;5052223;28;20034;-69
2021/05/24 01:18:53;;;;;;;3.08;1.63;;;435.20;2355.20;;;;;;5051920;28;20052;-69
2021/05/24 01:21:21;;;;;;;3.70;1.77;;;435.20;2355.20;;;;;;5052043;28;20051;-70
2021/05/24 01:23:47;;;;;;;2.90;1.58;;;410.50;2355.20;;;;;;5051869;28;20013;-70
2021/05/24 01:26:14;;;;;;;2.78;1.50;;;410.50;2355.20;;;;;;5051686;28;20356;-71
2021/05/24 01:28:40;;;;;;;2.90;1.55;;;410.50;2355.20;;;;;;5050831;28;20099;-69
2021/05/24 01:31:07;;;;;;;2.63;1.50;;;410.50;2355.20;;;;;;5051838;28;20017;-68
2021/05/24 01:33:35;;;;;;;2.80;1.40;;;410.40;2355.20;;;;;;5052147;28;20021;-69
2021/05/24 01:36:03;;;;;;;2.70;1.55;;;410.40;2355.20;;;;;;5051788;28;20112;-69
2021/05/24 01:38:30;;;;;;;2.53;1.42;;;410.30;2355.20;;;;;;5051983;28;20029;-69
2021/05/24 01:40:56;;;;;;;3.40;1.48;;;410.30;2355.20;;;;;;5051668;28;20021;-68
2021/05/24 01:43:26;;;;;;;2.08;1.30;;;410.30;2355.20;;;;;;5051829;28;20036;-70
2021/05/24 01:45:52;;;;;;;2.97;1.30;;;410.30;2355.20;;;;;;5051489;28;20108;-69
2021/05/24 01:48:18;;;;;;;2.85;1.30;;;410.20;2355.20;;;;;;5051972;28;20108;-68
2021/05/24 01:50:44;;;;;;;3.17;1.30;;;410.20;2355.20;;;;;;5051500;28;20021;-68
2021/05/24 01:53:09;;;;;;;2.22;1.20;;;410.20;2355.20;;;;;;5051648;28;20045;-68
2021/05/24 01:55:36;;;;;;;3.80;1.40;;;410.10;2355.20;;;;;;5051717;28;20479;-69
2021/05/24 01:58:03;;;;;;;3.05;1.33;;;410.00;2355.20;;;;;;5051807;28;20021;-69
2021/05/24 02:00:28;;;;;;;2.08;1.10;;;410.00;2355.20;;;;;;5051926;28;20451;-69
2021/05/24 02:02:55;;;;;;;2.03;1.10;;;409.90;2355.20;;;;;;5051414;28;20122;-69
2021/05/24 02:05:24;;;;;;;1.80;1.25;;;409.90;2355.20;;;;;;5051597;28;20048;-70
2021/05/24 02:07:51;;;;;;;3.00;1.52;;;409.80;2355.20;;;;;;5051415;28;20479;-69
2021/05/24 02:10:19;;;;;;;2.90;1.20;;;409.80;2355.20;;;;;;5051641;28;20032;-69
2021/05/24 02:12:46;;;;;;;2.35;1.13;;;409.70;2355.20;;;;;;5051232;28;20033;-69
2021/05/24 02:15:16;;;;;;;2.30;1.00;;;409.70;2355.20;;;;;;5051821;28;20418;-69
2021/05/24 02:17:42;;;;;;;1.73;1.10;;;409.60;2355.20;;;;;;5051754;28;20337;-70
2021/05/24 02:20:08;;;;;;;3.00;1.10;;;409.60;2355.20;;;;;;5054602;28;20040;-70
2021/05/24 02:22:34;;;;;;;1.33;1.05;;;409.60;2355.20;;;;;;5055099;28;20079;-70
2021/05/24 02:25:00;;;;;;;2.28;1.10;;;384.90;2329.60;;;;;;5054981;28;20414;-69
2021/05/24 02:27:26;;;;;;;2.70;1.20;;;384.90;2329.60;;;;;;5055065;28;20100;-69
2021/05/24 02:29:51;;;;;;;3.83;1.30;;;384.90;2329.60;;;;;;5055124;28;20051;-69
2021/05/24 02:32:17;;;;;;;2.45;1.10;;;384.80;2329.60;;;;;;5055033;28;20384;-69
2021/05/24 02:34:43;;;;;;;1.73;1.00;;;384.80;2329.60;;;;;;5054870;28;20391;-69
2021/05/24 02:37:09;;;;;;;2.70;1.20;;;384.80;2329.60;;;;;;5054541;28;20476;-69
2021/05/24 02:39:34;;;;;;;2.22;1.10;;;384.70;2329.60;;;;;;5054730;28;20060;-70
2021/05/24 02:42:00;;;;;;;1.80;1.20;;;384.70;2329.60;;;;;;5054926;28;20506;-69
2021/05/24 02:44:26;;;;;;;3.42;1.40;;;384.70;2329.60;;;;;;5054643;28;20104;-69
2021/05/24 02:46:52;;;;;;;2.08;1.20;;;384.60;2329.60;;;;;;5054517;28;20503;-69
2021/05/24 02:49:17;;;;;;;3.35;1.27;;;384.60;2329.60;;;;;;5054832;28;20029;-70
2021/05/24 02:51:43;;;;;;;1.77;1.08;;;384.60;2329.60;;;;;;5054533;28;20041;-69
2021/05/24 02:54:09;;;;;;;3.47;1.20;;;384.60;2329.60;;;;;;5054399;28;20154;-69
2021/05/24 02:56:37;;;;;;;2.17;1.13;;;384.60;2329.60;;;;;;5054477;28;20115;-69
2021/05/24 02:59:03;;;;;;;2.67;1.27;;;384.50;2329.60;;;;;;5054628;28;20053;-69
2021/05/24 03:01:30;;;;;;;2.30;1.25;;;384.60;2329.60;;;;;;5054304;28;20025;-69
2021/05/24 03:03:57;;;;;;;2.50;1.10;;;384.60;2329.60;;;;;;5054317;28;20017;-69
2021/05/24 03:06:23;;;;;;;2.72;1.20;;;384.50;2329.60;;;;;;5054238;28;20033;-69
2021/05/24 03:08:50;;;;;;;2.20;1.20;;;384.50;2329.60;;;;;;5054435;28;20075;-69
2021/05/24 03:11:17;;;;;;;1.98;1.10;;;384.60;2329.60;;;;;;5054386;28;20017;-69
2021/05/24 03:13:43;;;;;;;1.55;1.10;;;384.50;2329.60;;;;;;5054207;28;20475;-69
2021/05/24 03:16:09;;;;;;;1.95;1.10;;;384.40;2329.60;;;;;;5053983;28;20031;-70
2021/05/24 03:18:35;;;;;;;2.10;1.30;;;384.40;2329.60;;;;;;5054029;28;20056;-69
2021/05/24 03:21:00;;;;;;;3.00;1.30;;;384.30;2329.60;;;;;;5053998;28;20104;-69
2021/05/24 03:23:26;;;;;;;3.88;1.40;;;384.30;2329.60;;;;;;5054076;28;20049;-69
2021/05/24 03:25:53;;;;;;;2.67;1.20;;;384.30;2329.60;;;;;;5053932;28;20033;-69
2021/05/24 03:28:18;;;;;;;2.50;1.35;;;384.20;2329.60;;;;;;5053876;28;20017;-69
2021/05/24 03:30:44;;;;;;;3.08;1.30;;;384.30;2329.60;;;;;;5052626;28;20090;-69
2021/05/24 03:33:10;;;;;;;2.00;1.23;;;384.20;2329.60;;;;;;5053843;28;20028;-69
2021/05/24 03:35:35;;;;;;;3.08;1.40;;;384.10;2329.60;;;;;;5053693;28;20025;-69
2021/05/24 03:38:01;;;;;;;2.33;1.40;;;384.10;2329.60;;;;;;5053875;28;20487;-69
2021/05/24 03:40:28;;;;;;;2.78;1.45;;;384.10;2329.60;;;;;;5053404;28;20024;-69
2021/05/24 03:42:54;;;;;;;2.72;1.40;;;384.10;2329.60;;;;;;5053714;28;20021;-72
2021/05/24 03:45:27;;;;;;;3.65;1.50;;;384.00;2329.60;;;;;;5041038;28;20396;-68
2021/05/24 03:47:53;;;;;;;2.90;1.42;;;384.00;2329.60;;;;;;5053893;28;20363;-69
2021/05/24 03:50:20;;;;;;;2.28;1.30;;;384.10;2329.60;;;;;;5053359;28;20408;-69
2021/05/24 03:52:46;;;;;;;2.33;1.30;;;384.10;2329.60;;;;;;5053202;28;20041;-69
2021/05/24 03:55:14;;;;;;;3.33;1.40;;;384.20;2329.60;;;;;;5053384;28;20067;-69
2021/05/24 03:57:40;;;;;;;2.42;1.40;;;384.30;2329.60;;;;;;5044604;28;20025;-69
2021/05/24 04:00:08;;;;;;;3.65;1.50;;;384.30;2329.60;;;;;;5053193;28;20027;-69
2021/05/24 04:02:34;;;;;;;2.60;1.50;;;384.10;2329.60;;;;;;5052663;28;20021;-69
2021/05/24 04:05:08;;;;;;;5.22;1.70;;;384.10;2329.60;;;;;;5052570;28;20484;-69
2021/05/24 04:07:33;;;;;;;2.78;1.48;;;384.30;2329.60;;;;;;5052998;28;20033;-69
2021/05/24 04:09:59;;;;;;;2.78;1.40;;;384.30;2329.60;;;;;;5053073;28;20372;-69
2021/05/24 04:12:25;;;;;;;2.95;1.50;;;384.40;2329.60;;;;;;5052765;28;20025;-70
2021/05/24 04:14:50;;;;;;;2.80;1.40;;;384.50;2329.60;;;;;;5052848;28;20033;-69
2021/05/24 04:17:20;;;;;;;2.08;1.27;;;384.50;2329.60;;;;;;5052929;28;20468;-69
2021/05/24 04:19:45;;;;;;;2.50;1.45;;;384.60;2329.60;;;;;;5052695;28;20029;-69
2021/05/24 04:22:11;;;;;;;3.50;1.50;;;384.70;2329.60;;;;;;5051695;28;20036;-70
2021/05/24 04:24:37;;;;;;;2.97;1.40;;;384.70;2329.60;;;;;;5052804;28;20021;-69
2021/05/24 04:27:03;;;;;;;2.92;1.40;;;384.70;2329.60;;;;;;5052686;28;20024;-71
2021/05/24 04:29:29;;;;;;;4.03;1.55;;;384.90;2329.60;;;;;;5052505;28;20082;-68
2021/05/24 04:31:54;;;;;;;2.65;1.40;;;409.60;2355.20;;;;;;5052433;28;20083;-69
2021/05/24 04:34:20;;;;;;;2.38;1.30;;;409.70;2355.20;;;;;;5052589;28;20509;-69
2021/05/24 04:36:46;;;;;;;2.97;1.40;;;409.80;2355.20;;;;;;5052511;28;20109;-68
2021/05/24 04:39:11;;;;;;;3.20;1.40;;;409.90;2355.20;;;;;;5052579;28;20088;-69
2021/05/24 04:41:37;;;;;;;2.67;1.48;;;409.80;2355.20;;;;;;5052217;28;20483;-69
2021/05/24 04:44:19;;;;;;;2.67;1.40;;;410.00;2355.20;;;;;;5052500;28;20017;-69
2021/05/24 04:46:48;;;;;;;3.25;1.70;;;410.20;2355.20;;;;;;5052692;28;20029;-69
2021/05/24 04:49:15;;;;;;;3.08;1.60;;;410.30;2355.20;;;;;;5052466;28;20067;-69
2021/05/24 04:51:41;;;;;;;3.95;1.75;;;410.40;2355.20;;;;;;5052371;28;20051;-69
2021/05/24 04:54:07;;;;;;;4.53;1.50;;;410.30;2355.20;;;;;;5052214;28;20017;-69
2021/05/24 04:56:36;;;;;;;2.40;1.50;;;410.40;2355.20;;;;;;5052386;28;20044;-69
2021/05/24 04:59:03;;;;;;;3.33;1.70;;;435.20;2355.20;;;;;;5052203;28;20043;-70
2021/05/24 05:01:29;;;;;;;4.85;1.80;;;435.30;2355.20;;;;;;5049277;28;20017;-68
2021/05/24 05:03:54;;;;;;;2.60;1.60;;;435.50;2355.20;;;;;;5049560;28;20449;-69
2021/05/24 05:06:20;;;;;;;4.35;1.60;;;435.60;2355.20;;;;;;5052091;28;20025;-68
2021/05/24 05:08:46;;;;;;;3.05;1.70;;;435.70;2355.20;;;;;;5052017;28;20066;-68
2021/05/24 05:11:15;;;;;;;2.95;1.83;;;435.90;2355.20;;;;;;5039772;28;20025;-67
2021/05/24 05:13:42;;;;;;;2.95;1.67;;;435.80;2355.20;;;;;;5052111;28;20104;-67
2021/05/24 05:16:09;;;;;;;3.47;1.77;;;435.70;2355.20;;;;;;5051878;28;20086;-68
2021/05/24 05:18:35;;;;;;;3.55;1.70;;;435.80;2355.20;;;;;;5046626;28;20044;-69
2021/05/24 05:21:01;;;;;;;5.15;1.73;;;435.90;2355.20;;;;;;5033236;28;20025;-69
2021/05/24 05:23:26;;;;;;;2.75;1.70;;;436.00;2355.20;;;;;;5032088;28;20029;-67
2021/05/24 05:25:52;;;;;;;3.92;1.75;;;435.90;2355.20;;;;;;5032032;28;20029;-68
2021/05/24 05:28:21;;;;;;;4.30;1.90;;;460.80;2380.80;;;;;;5051356;28;20025;-68
2021/05/24 05:30:47;;;;;;;3.65;2.00;;;461.10;2380.80;;;;;;5037369;28;20109;-71
2021/05/24 05:33:12;;;;;;;3.28;2.00;;;461.10;2380.80;;;;;;5032669;28;20033;-69
2021/05/24 05:35:38;;;;;;;3.38;2.00;;;461.30;2380.80;;;;;;5033713;28;20056;-74
2021/05/24 05:38:04;;;;;;;3.03;1.88;;;461.30;2380.80;;;;;;5030914;28;20036;-68
2021/05/24 05:40:32;;;;;;;3.47;2.17;;;461.40;2380.80;;;;;;5031460;28;20123;-70
2021/05/24 05:42:57;;;;;;;4.10;2.10;;;461.40;2380.80;;;;;;5041559;28;20171;-73
2021/05/24 05:45:23;;;;;;;3.53;2.08;;;461.50;2380.80;;;;;;5051343;28;20104;-69
2021/05/24 05:47:49;;;;;;;4.07;2.20;;;461.70;2380.80;;;;;;5051643;28;20021;-70
2021/05/24 05:50:16;;;;;;;3.83;2.28;;;486.80;2380.80;;;;;;5051341;28;20029;-69
2021/05/24 05:52:41;;;;;;;4.47;2.40;;;487.00;2380.80;;;;;;5051597;28;20492;-69
2021/05/24 05:55:08;;;;;;;3.78;2.10;;;512.10;2380.80;;;;;;5054413;28;20036;-67
2021/05/24 05:57:34;;;;;;;4.32;2.13;;;512.80;2380.80;;;;;;5055646;28;20098;-66
2021/05/24 05:59:59;;;;;;;4.43;2.60;;;537.70;2406.40;;;;;;5055126;28;20032;-69
2021/05/24 06:02:25;;;;;;;3.55;2.45;;;537.90;2406.40;;;;;;5055189;28;20064;-72
2021/05/24 06:04:51;;;;;;;4.55;2.50;;;538.30;2406.40;;;;;;5055410;28;20124;-67
2021/05/24 06:07:17;;;;;;;3.63;2.30;;;563.20;2432.00;;;;;;5055183;28;20494;-67
2021/05/24 06:09:43;;;;;;;3.55;2.50;;;563.50;2406.40;;;;;;5055050;28;20111;-68
2021/05/24 06:12:09;;;;;;;3.60;2.47;;;563.50;2380.80;;;;;;5055006;28;20021;-69
2021/05/24 06:14:37;;;;;;;3.42;2.20;;;563.50;2380.80;;;;;;5055202;28;20111;-69
2021/05/24 06:17:04;;;;;;;3.42;2.50;;;563.90;2329.60;;;;;;5054990;28;20033;-68
2021/05/24 06:19:29;;;;;;;5.35;2.42;;;563.80;2304.00;;;;;;5055041;28;20036;-69
2021/05/24 06:21:55;;;;;;;4.55;2.60;;;563.90;2329.60;;;;;;5055035;28;20488;-69
2021/05/24 06:24:21;;;;;;;4.32;2.85;;;564.00;2329.60;;;;;;5036807;28;20115;-69
2021/05/24 06:26:46;;;;;;;3.90;2.50;;;564.10;2278.40;;;;;;5054749;28;20021;-69
2021/05/24 06:29:12;;;;;;;4.28;2.78;;;564.10;2304.00;;;;;;5054792;28;20036;-69
2021/05/24 06:31:42;;;;;;;4.10;3.08;;;588.90;2252.80;;;;;;5054927;28;20075;-77
2021/05/24 06:34:08;;;;;;;4.83;3.37;;;589.00;2227.20;;;;;;5054907;28;20033;-67
2021/05/24 06:36:33;;;;;;;5.25;3.28;;;589.00;2227.20;;;;;;5054800;28;20044;-68
2021/05/24 06:38:59;;;;;;;4.30;2.90;;;589.10;2201.60;;;;;;5054631;28;20175;-70
2021/05/24 06:41:25;;;;;;;3.92;3.00;;;589.40;2176.00;;;;;;5054477;28;20029;-67
2021/05/24 06:43:50;;;;;;;3.50;2.70;;;589.70;2124.80;;;;;;5054572;28;20539;-67
2021/05/24 06:46:16;;;;;;;3.80;2.97;;;589.70;2099.20;;;;;;5054404;28;20025;-67
2021/05/24 06:48:42;;;;;;;3.15;2.58;;;614.60;2099.20;;;;;;5054510;28;20467;-67
2021/05/24 06:51:07;;;;;;;4.05;3.00;;;614.80;2073.60;;;;;;5054462;28;20032;-67
2021/05/24 06:53:33;;;;;;;3.60;2.60;;;614.80;1996.80;;;;;;5054822;28;20459;-67
2021/05/24 06:55:59;;;;;;;3.63;2.58;;;614.90;1996.80;;;;;;5054282;28;20033;-70
2021/05/24 06:58:25;;;;;;;3.67;2.83;;;615.30;1945.60;;;;;;5054727;28;20100;-70
2021/05/24 07:00:50;;;;;;;4.60;2.85;;;615.10;1945.60;;;;;;5052994;28;20025;-67
2021/05/24 07:03:16;;;;;;;3.35;2.80;;;615.10;1945.60;;;;;;5036358;28;20066;-67
2021/05/24 07:05:42;;;;;;;4.03;2.80;;;615.10;1945.60;;;;;;5049534;28;20032;-69
2021/05/24 07:08:07;;;;;;;4.10;2.78;;;614.90;1971.20;;;;;;5054148;28;20044;-67
2021/05/24 07:10:33;;;;;;;4.45;2.95;;;614.80;1996.80;;;;;;5043718;28;20026;-67
2021/05/24 07:12:59;;;;;;;4.78;3.10;;;615.10;1971.20;;;;;;5052842;28;20020;-68
2021/05/24 07:15:25;;;;;;;3.92;3.00;;;615.20;1945.60;;;;;;5048960;28;20029;-68
2021/05/24 07:17:51;;;;;;;3.70;2.80;;;615.20;1920.00;;;;;;5051069;28;20075;-68
2021/05/24 07:20:16;;;;;;;4.30;2.80;;;640.00;1920.00;;;;;;5053683;28;20036;-68
2021/05/24 07:22:42;;;;;;;3.60;2.70;;;615.20;1945.60;;;;;;5053898;28;20365;-72
2021/05/24 07:25:08;;;;;;;4.13;2.90;;;615.30;1920.00;;;;;;5053586;28;20463;-72
2021/05/24 07:27:34;;;;;;;7.28;3.00;;;615.00;1945.60;;;;;;5053696;28;20021;-69
2021/05/24 07:30:00;;;;;;;3.90;2.80;;;614.90;1945.60;;;;;;5053855;28;20013;-69
2021/05/24 07:32:26;;;;;;;3.85;2.88;;;615.00;1945.60;;;;;;5053599;28;20063;-75
2021/05/24 07:34:51;;;;;;;4.88;2.80;;;614.80;1971.20;;;;;;5053573;28;20092;-72
2021/05/24 07:37:17;;;;;;;5.10;2.70;;;614.60;1971.20;;;;;;5053387;28;20503;-70
2021/05/24 07:39:43;;;;;;;4.32;3.00;;;614.70;1971.20;;;;;;5053619;28;20021;-73
2021/05/24 07:42:09;;;;;;;8.43;2.92;;;614.60;1971.20;;;;;;5053260;28;20024;-71
2021/05/24 07:44:35;;;;;;;4.03;3.10;;;614.40;1996.80;;;;;;5053455;28;20120;-76
2021/05/24 07:47:02;;;;;;;3.95;3.20;;;589.70;1971.20;;;;;;5053246;28;20424;-72
2021/05/24 07:49:28;;;;;;;4.40;3.40;;;588.90;2048.00;;;;;;5053507;28;20468;-73
2021/05/24 07:51:54;;;;;;;4.20;3.60;;;563.60;2073.60;;;;;;5053207;28;20041;-75
2021/05/24 07:54:20;;;;;;;4.20;3.20;;;564.10;2073.60;;;;;;5039376;28;20028;-72
2021/05/24 07:56:47;;;;;;;4.65;3.50;;;563.90;2073.60;;;;;;5053351;28;20061;-71
2021/05/24 07:59:14;;;;;;;3.92;3.05;;;563.50;2124.80;;;;;;5053237;28;20044;-69
2021/05/24 08:01:40;;;;;;;4.85;3.50;;;589.20;2048.00;;;;;;5053254;28;20028;-70
2021/05/24 08:04:05;;;;;;;5.55;3.47;;;614.40;1996.80;;;;;;5053245;28;20117;-72
2021/05/24 08:06:31;;;;;;;4.80;3.55;;;614.80;1971.20;;;;;;5052851;28;20100;-71
2021/05/24 08:08:57;;;;;;;4.35;2.90;;;615.20;1920.00;;;;;;5053418;28;20025;-69
2021/05/24 08:11:23;;;;;;;3.85;3.00;;;640.00;1894.40;;;;;;5052900;28;20025;-69
2021/05/24 08:13:50;;;;;;;4.13;3.00;;;615.20;1894.40;;;;;;5052796;28;20017;-71
2021/05/24 08:16:16;;;;;;;4.40;2.20;;;615.10;1920.00;;;;;;5051644;28;20025;-70
2021/05/24 08:18:42;;;;;;;3.58;2.40;;;640.50;1894.40;;;;;;5041334;28;20079;-70
2021/05/24 08:21:09;;;;;;;3.47;2.35;;;640.70;1868.80;;;;;;5046565;28;20029;-72
2021/05/24 08:23:35;;;;;;;5.13;2.30;;;665.60;1894.40;;;;;;5034240;28;20037;-68
2021/05/24 08:26:01;;;;;;;4.03;2.42;;;665.90;1868.80;;;;;;5035038;28;20077;-68
2021/05/24 08:28:27;;;;;;;3.20;2.30;;;665.70;1843.20;;;;;;5032977;28;20109;-70
2021/05/24 08:30:54;;;;;;;3.50;2.60;;;640.90;1817.60;;;;;;5032482;28;20500;-73
2021/05/24 08:33:21;;;;;;;5.63;2.47;;;640.20;1868.80;;;;;;5032767;28;20380;-70
2021/05/24 08:35:48;;;;;;;4.85;2.67;;;615.00;1868.80;;;;;;5035844;28;20480;-69
2021/05/24 08:38:14;;;;;;;3.97;2.30;;;615.00;1894.40;;;;;;5032992;28;20029;-70
2021/05/24 08:40:41;;;;;;;6.22;2.40;;;614.90;1945.60;;;;;;5034164;28;20145;-69
2021/05/24 08:43:07;;;;;;;4.70;2.65;;;614.90;1894.40;;;;;;5032031;28;20097;-72
2021/05/24 08:45:37;;;;;;;4.55;2.47;;;614.60;1920.00;;;;;;5036894;28;20394;-73
2021/05/24 08:48:05;;;;;;;5.78;2.60;;;614.70;1920.00;;;;;;5034036;28;20388;-70
2021/05/24 08:50:30;;;;;;;5.63;2.55;;;614.70;1945.60;;;;;;5035348;28;20033;-70
2021/05/24 08:52:56;;;;;;;9.38;3.00;;;614.80;1945.60;;;;;;5032920;28;20435;-70
2021/05/24 08:55:22;;;;;;;7.65;2.65;;;614.90;1920.00;;;;;;5033337;28;20029;-73
2021/05/24 08:57:48;;;;;;;6.45;2.70;;;614.90;1894.40;;;;;;5033487;28;20531;-72
2021/05/24 09:00:16;;;;;;;3.72;2.70;;;614.90;1894.40;;;;;;5031874;28;20052;-75
2021/05/24 09:02:56;;;;;;;5.88;2.90;;;615.10;1894.40;;;;;;5037297;28;20033;-75
2021/05/24 09:05:28;;;;;;;6.00;2.90;;;640.00;1868.80;;;;;;5033486;28;20029;-76
2021/05/24 09:08:00;;;;;;;5.47;2.60;;;640.10;1868.80;;;;;;5047982;28;20021;-69
2021/05/24 09:10:30;;;;;;;4.85;2.50;;;640.20;1894.40;;;;;;5048154;28;20491;-72
2021/05/24 09:12:56;;;;;;;4.18;2.50;;;640.90;1894.40;;;;;;5036019;28;20406;-70
2021/05/24 09:15:24;;;;;;;4.60;2.35;;;665.90;1868.80;;;;;;5051725;28;20092;-71
2021/05/24 09:18:00;;;;;;;4.47;2.55;;;691.30;1843.20;;;;;;5051570;28;20071;-71
2021/05/24 09:20:30;;;;;;;4.00;2.63;;;692.00;1740.80;;;;;;5051363;28;20040;-70
2021/05/24 09:23:20;;;;;;;4.20;2.70;;;716.90;1740.80;;;;;;5048199;28;20078;-69
2021/05/24 09:26:04;;;;;;;3.67;2.30;;;717.20;1715.20;;;;;;5050998;28;20104;-71
2021/05/24 09:28:37;;;;;;;3.75;2.45;;;692.00;1715.20;;;;;;5036282;28;20025;-72
2021/05/24 09:31:11;;;;;;;4.78;2.88;;;691.70;1689.60;;;;;;5042815;28;20025;-70
2021/05/24 09:33:40;;;;;;;3.92;2.97;;;691.40;1740.80;;;;;;5052825;28;20024;-70
2021/05/24 09:36:06;;;;;;;5.75;3.00;;;666.00;1766.40;;;;;;5052681;28;20143;-70
2021/05/24 09:38:44;;;;;;;3.55;2.90;;;666.00;1792.00;;;;;;5052818;28;20017;-70
2021/05/24 09:41:12;;;;;;;3.58;2.42;;;665.70;1792.00;;;;;;5047129;28;20032;-69
2021/05/24 09:43:44;;;;;;;4.93;2.40;;;665.60;1792.00;;;;;;5037010;28;20062;-70
2021/05/24 09:46:15;;;;;;;3.67;2.70;;;666.00;1792.00;;;;;;5037487;28;20387;-69
2021/05/24 09:48:43;;;;;;;4.07;2.40;;;666.50;1740.80;;;;;;5050726;28;20028;-76
2021/05/24 09:51:12;;;;;;;3.28;2.40;;;691.40;1740.80;;;;;;5051210;28;20016;-73
2021/05/24 09:53:40;;;;;;;4.53;2.50;;;691.40;1715.20;;;;;;5021761;28;20514;-69
2021/05/24 09:56:14;;;;;;;3.92;2.45;;;691.30;1740.80;;;;;;5045704;28;20029;-69
2021/05/24 09:58:40;;;;;;;4.65;2.50;;;666.40;1715.20;;;;;;5054903;28;20029;-71
2021/05/24 10:01:22;;;;;;;3.40;2.60;;;666.50;1766.40;;;;;;5046996;28;20035;-69
2021/05/24 10:03:56;;;;;;;5.10;2.60;;;691.20;1740.80;;;;;;5039908;28;20029;-68
2021/05/24 10:06:22;;;;;;;4.85;2.45;;;691.50;1689.60;;;;;;5044561;28;20025;-69
2021/05/24 10:08:48;;;;;;;3.55;2.60;;;691.50;1715.20;;;;;;5054480;28;20395;-70
2021/05/24 10:11:14;;;;;;;3.92;2.60;;;691.60;1689.60;;;;;;5054479;28;20017;-69
2021/05/24 10:13:40;;;;;;;3.45;2.10;;;691.90;1664.00;;;;;;5054590;28;20537;-69
2021/05/24 10:16:11;;;;;;;5.40;2.78;;;716.90;1689.60;;;;;;5054662;28;20029;-69
2021/05/24 10:18:37;;;;;;;3.60;2.67;;;717.00;1664.00;;;;;;5054792;28;20493;-70
2021/05/24 10:21:03;;;;;;;3.72;2.50;;;716.90;1689.60;;;;;;5053393;28;20052;-69
2021/05/24 10:23:29;;;;;;;3.47;2.63;;;717.20;1664.00;;;;;;5047889;28;20037;-70
2021/05/24 10:25:58;;;;;;;3.65;2.50;;;692.10;1638.40;;;;;;5035852;28;20391;-69
2021/05/24 10:28:28;;;;;;;3.70;2.30;;;691.80;1638.40;;;;;;5036538;28;20021;-69
2021/05/24 10:30:59;;;;;;;6.35;3.30;;;691.40;1664.00;;;;;;5036107;28;20029;-70
2021/05/24 10:33:42;;;;;;;11.40;3.05;;;691.30;1664.00;;;;;;5035210;28;20022;-69
2021/05/24 10:36:15;;;;;;;10.35;2.70;;;691.50;1664.00;;;;;;5036058;28;20034;-72
2021/05/24 10:38:40;;;;;;;11.80;2.92;;;691.90;1612.80;;;;;;5036621;28;20048;-70
2021/05/24 10:41:11;;;;;;;9.82;2.78;;;716.90;1612.80;;;;;;5038204;28;20025;-69
2021/05/24 10:43:47;;;;;;;5.35;2.50;;;717.30;1638.40;;;;;;5049981;28;20143;-69
2021/05/24 10:46:30;;;;;;;7.47;2.90;;;717.70;1612.80;;;;;;5050512;28;20038;-70
2021/05/24 10:48:56;;;;;;;8.90;2.88;;;742.40;1612.80;;;;;;5037760;28;20074;-69
2021/05/24 10:51:45;;;;;;;9.93;2.80;;;717.70;1587.20;;;;;;5054419;28;20110;-69
2021/05/24 10:54:12;;;;;;;6.28;3.30;;;717.40;1612.80;;;;;;5054254;28;20447;-69
2021/05/24 10:56:43;;;;;;;8.02;3.22;;;691.60;1612.80;;;;;;5053536;28;20029;-68
2021/05/24 10:59:40;;;;;;;7.57;3.10;;;691.90;1612.80;;;;;;5054085;28;20032;-69
2021/05/24 11:02:12;;;;;;;5.18;3.00;;;691.20;1638.40;;;;;;5054564;28;20032;-68
2021/05/24 11:04:52;;;;;;;6.78;2.70;;;691.70;1638.40;;;;;;5047758;28;20036;-71
2021/05/24 11:07:44;;;;;;;7.30;2.97;;;692.00;1612.80;;;;;;5049123;28;20082;-71
2021/05/24 11:12:42;;;;;;;6.30;3.35;;;717.20;1587.20;;;;;;5053762;28;20024;-69
2021/05/24 11:15:10;;;;;;;5.35;3.20;;;717.30;1612.80;;;;;;5054321;28;20025;-67
2021/05/24 11:18:03;;;;;;;6.38;3.60;;;692.10;1612.80;;;;;;5053646;28;20184;-69
2021/05/24 11:20:39;;;;;;;5.70;3.42;;;691.80;1612.80;;;;;;5054338;28;20025;-69
2021/05/24 11:23:20;;;;;;;6.50;3.13;;;691.80;1587.20;;;;;;5048979;28;20025;-69
2021/05/24 11:25:53;;;;;;;6.13;2.90;;;692.00;1612.80;;;;;;5053565;28;20020;-69
2021/05/24 11:28:20;;;;;;;5.25;3.03;;;691.40;1612.80;;;;;;5053899;28;20397;-69
2021/05/24 11:31:16;;;;;;;5.80;3.08;;;666.40;1638.40;;;;;;5047442;28;20022;-70
2021/05/24 11:33:48;;;;;;;4.35;2.95;;;666.30;1638.40;;;;;;5045812;28;20067;-69
2021/05/24 11:36:40;;;;;;;5.65;3.15;;;666.10;1587.20;;;;;;5053515;28;20439;-70
2021/05/24 11:39:19;;;;;;;3.63;2.40;;;666.50;1587.20;;;;;;5053479;28;20021;-69
2021/05/24 11:42:14;;;;;;;4.25;1.90;;;691.60;1510.40;;;;;;5047985;28;20400;-68
2021/05/24 11:44:50;;;;;;;4.50;2.20;;;691.50;1459.20;;;;;;5036255;28;20089;-69
2021/05/24 11:47:20;;;;;;;4.30;2.00;;;691.30;1484.80;;;;;;5053629;28;20017;-69
2021/05/24 11:49:48;;;;;;;5.05;2.20;;;665.90;1510.40;;;;;;5053597;28;20025;-70
2021/05/24 11:52:19;;;;;;;4.00;2.10;;;666.40;1510.40;;;;;;5052186;28;20071;-69
2021/05/24 11:54:49;;;;;;;3.78;2.10;;;691.60;1484.80;;;;;;5053611;28;20037;-70
2021/05/24 11:57:18;;;;;;;4.03;2.22;;;666.20;1510.40;;;;;;5053256;28;20025;-70
2021/05/24 11:59:44;;;;;;;3.17;2.17;;;691.20;1510.40;;;;;;5053448;28;20128;-70
2021/05/24 12:02:10;;;;;;;3.45;1.90;;;691.60;1484.80;;;;;;5053219;28;20361;-70
2021/05/24 12:04:39;;;;;;;3.63;1.90;;;691.60;1510.40;;;;;;5052992;28;20024;-70
2021/05/24 12:07:11;;;;;;;3.10;1.70;;;691.90;1484.80;;;;;;5053151;28;20514;-70
2021/05/24 12:09:42;;;;;;;2.80;1.70;;;691.80;1459.20;;;;;;5053082;28;20391;-71
2021/05/24 12:12:09;;;;;;;;;;;716.80;1510.40;;;;;;5053504;28;20385;-70
2021/05/24 12:14:36;;;;;;;4.63;1.80;;;716.90;1433.60;;;;;;5053028;28;20346;-69
2021/05/24 12:17:13;;;;;;;2.92;1.70;;;691.80;1408.00;;;;;;5052880;28;20494;-70
2021/05/24 12:19:39;;;;;;;3.53;1.80;;;691.80;1433.60;;;;;;5051163;28;20392;-74
2021/05/24 12:22:07;;;;;;;2.92;1.50;;;691.60;1459.20;;;;;;5052987;28;20064;-75
2021/05/24 12:24:38;;;;;;;2.70;1.73;;;691.80;1459.20;;;;;;5052696;28;20079;-73